createdAt,value
2022-08-09T00:02:29.057Z,1.60
2022-08-09T00:05:03.208Z,1.52
2022-08-09T00:07:44.650Z,1.65
2022-08-09T00:10:11.805Z,1.60
2022-08-09T00:12:51.727Z,1.63
2022-08-09T00:15:19.770Z,1.55
2022-08-09T00:18:09.353Z,1.80
2022-08-09T00:20:38.447Z,1.75
2022-08-09T00:23:56.723Z,1.80
2022-08-09T00:25:56.334Z,1.90
2022-08-09T00:28:23.019Z,1.67
2022-08-09T00:30:53.653Z,1.40
2022-08-09T00:33:49.084Z,1.80
2022-08-09T00:36:07.974Z,1.60
2022-08-09T00:38:34.939Z,1.70
2022-08-09T00:41:01.476Z,1.73
2022-08-09T00:44:15.997Z,1.77
2022-08-09T00:46:28.494Z,1.65
2022-08-09T00:49:02.398Z,1.75
2022-08-09T00:51:33.773Z,1.77
2022-08-09T00:54:00.637Z,1.92
2022-08-09T00:56:27.248Z,1.73
2022-08-09T00:58:53.711Z,1.55
2022-08-09T01:01:24.058Z,1.50
2022-08-09T01:04:08.612Z,1.88
2022-08-09T01:06:54.522Z,1.80
2022-08-09T01:09:36.558Z,1.80
2022-08-09T01:12:12.917Z,2.00
2022-08-09T01:14:45.094Z,1.80
2022-08-09T01:17:30.434Z,1.85
2022-08-09T01:20:03.141Z,1.52
2022-08-09T01:22:57.492Z,1.92
2022-08-09T01:25:37.501Z,1.50
2022-08-09T01:28:11.277Z,1.50
2022-08-09T01:30:51.325Z,1.80
2022-08-09T01:33:23.817Z,1.65
2022-08-09T01:35:57.623Z,1.80
2022-08-09T01:38:29.728Z,1.92
2022-08-09T01:41:04.766Z,1.70
2022-08-09T01:43:45.737Z,1.60
2022-08-09T01:46:24.699Z,1.83
2022-08-09T01:48:55.399Z,1.73
2022-08-09T01:51:23.799Z,1.80
2022-08-09T01:53:58.105Z,1.77
2022-08-09T01:56:27.064Z,1.48
2022-08-09T01:58:56.447Z,1.50
2022-08-09T02:01:57.638Z,1.85
2022-08-09T02:04:13.278Z,1.80
2022-08-09T02:06:45.306Z,1.90
2022-08-09T02:09:23.469Z,1.88
2022-08-09T02:11:50.931Z,2.05
2022-08-09T02:14:26.413Z,1.88
2022-08-09T02:17:15.238Z,1.60
2022-08-09T02:19:43.589Z,1.67
2022-08-09T02:22:16.783Z,1.73
2022-08-09T02:24:52.006Z,1.70
2022-08-09T02:27:27.452Z,1.70
2022-08-09T02:30:11.860Z,1.83
2022-08-09T02:32:43.471Z,1.60
2022-08-09T02:35:19.299Z,1.77
2022-08-09T02:37:54.318Z,1.90
2022-08-09T02:40:26.895Z,1.55
2022-08-09T02:42:55.582Z,1.75
2022-08-09T02:45:31.146Z,1.80
2022-08-09T02:48:02.872Z,1.67
2022-08-09T02:50:35.973Z,1.63
2022-08-09T02:53:07.652Z,1.65
2022-08-09T02:55:57.414Z,1.70
2022-08-09T02:58:35.538Z,1.73
2022-08-09T03:01:08.344Z,1.88
2022-08-09T03:04:12.799Z,1.80
2022-08-09T03:06:27.400Z,1.77
2022-08-09T03:08:55.290Z,1.75
2022-08-09T03:12:04.528Z,1.88
2022-08-09T03:14:11.784Z,1.70
2022-08-09T03:16:45.193Z,1.80
2022-08-09T03:19:58.827Z,2.10
2022-08-09T03:22:11.793Z,1.65
2022-08-09T03:27:21.610Z,1.80
2022-08-09T03:29:57.846Z,1.65
2022-08-09T03:32:30.058Z,1.60
2022-08-09T03:34:57.152Z,1.80
2022-08-09T03:37:56.180Z,1.50
2022-08-09T03:40:13.094Z,1.58
2022-08-09T03:42:40.107Z,1.80
2022-08-09T03:45:10.485Z,1.80
2022-08-09T03:47:41.889Z,1.92
2022-08-09T03:50:12.266Z,1.70
2022-08-09T03:52:41.818Z,1.75
2022-08-09T03:55:14.313Z,1.83
2022-08-09T03:57:53.706Z,2.08
2022-08-09T04:00:29.425Z,1.80
2022-08-09T04:02:59.438Z,1.83
2022-08-09T04:05:28.080Z,1.92
2022-08-09T04:07:57.336Z,2.00
2022-08-09T04:10:29.657Z,1.90
2022-08-09T04:12:58.180Z,1.63
2022-08-09T04:15:52.224Z,1.80
2022-08-09T04:18:18.057Z,1.85
2022-08-09T04:20:46.445Z,1.85
2022-08-09T04:23:17.376Z,1.70
2022-08-09T04:25:44.783Z,2.00
2022-08-09T04:28:34.003Z,1.75
2022-08-09T04:31:08.303Z,2.10
2022-08-09T04:33:53.144Z,2.05
2022-08-09T04:36:25.522Z,1.90
2022-08-09T04:38:52.532Z,1.90
2022-08-09T04:41:19.231Z,1.80
2022-08-09T04:44:05.782Z,1.73
2022-08-09T04:46:37.698Z,1.92
2022-08-09T04:49:40.862Z,2.15
2022-08-09T04:52:09.636Z,2.38
2022-08-09T04:54:36.495Z,2.10
2022-08-09T04:57:03.919Z,2.50
2022-08-09T04:59:30.945Z,3.35
2022-08-09T05:01:57.687Z,2.47
2022-08-09T05:04:31.165Z,2.50
2022-08-09T05:06:57.962Z,3.58
2022-08-09T05:09:24.576Z,3.72
2022-08-09T05:11:51.435Z,3.28
2022-08-09T05:14:18.455Z,3.70
2022-08-09T05:16:58.998Z,3.25
2022-08-09T05:19:44.482Z,3.55
2022-08-09T05:22:35.078Z,4.00
2022-08-09T05:24:57.780Z,3.25
2022-08-09T05:27:29.120Z,3.97
2022-08-09T05:29:57.787Z,4.15
2022-08-09T05:32:25.730Z,5.05
2022-08-09T05:34:53.464Z,5.18
2022-08-09T05:37:19.995Z,6.32
2022-08-09T05:39:46.624Z,7.65
2022-08-09T05:42:18.063Z,6.95
2022-08-09T05:44:50.642Z,8.02
2022-08-09T05:47:17.985Z,6.68
2022-08-09T05:50:31.137Z,6.38
2022-08-09T05:52:32.711Z,6.78
2022-08-09T05:55:02.991Z,6.22
2022-08-09T05:57:55.424Z,6.10
2022-08-09T06:00:20.655Z,5.88
2022-08-09T06:02:48.925Z,4.88
2022-08-09T06:05:20.544Z,7.22
2022-08-09T06:08:05.396Z,5.85
2022-08-09T06:10:34.713Z,5.22
2022-08-09T06:13:12.199Z,6.15
2022-08-09T06:15:44.997Z,6.82
2022-08-09T06:18:13.780Z,4.82
2022-08-09T06:20:42.369Z,4.78
2022-08-09T06:23:12.076Z,3.90
2022-08-09T06:25:42.084Z,4.43
2022-08-09T06:28:09.888Z,4.25
2022-08-09T06:30:36.495Z,4.53
2022-08-09T06:33:30.404Z,5.07
2022-08-09T06:35:57.123Z,4.68
2022-08-09T06:38:32.125Z,3.92
2022-08-09T06:41:04.561Z,3.25
2022-08-09T06:43:39.715Z,3.50
2022-08-09T06:46:10.858Z,3.75
2022-08-09T06:48:42.793Z,3.20
2022-08-09T06:51:10.206Z,3.38
2022-08-09T06:53:38.898Z,3.83
2022-08-09T06:56:06.858Z,3.00
2022-08-09T07:00:46.925Z,3.33
2022-08-09T07:01:21.421Z,3.65
2022-08-09T07:03:52.192Z,3.38
2022-08-09T07:06:19.743Z,3.03
2022-08-09T07:08:49.534Z,3.13
2022-08-09T07:11:17.719Z,2.60
2022-08-09T07:14:05.733Z,2.50
2022-08-09T07:16:41.577Z,2.75
2022-08-09T07:19:09.995Z,2.45
2022-08-09T07:21:41.865Z,3.20
2022-08-09T07:24:32.096Z,2.15
2022-08-09T07:27:00.445Z,2.42
2022-08-09T07:29:37.667Z,2.40
2022-08-09T07:32:05.861Z,2.30
2022-08-09T07:34:32.539Z,2.10
2022-08-09T07:37:02.748Z,2.95
2022-08-09T07:39:41.644Z,2.10
2022-08-09T07:42:09.288Z,2.17
2022-08-09T07:44:52.494Z,2.08
2022-08-09T07:47:21.364Z,1.90
2022-08-09T07:50:05.412Z,2.45
2022-08-09T07:52:36.014Z,2.35
2022-08-09T07:55:09.753Z,2.20
2022-08-09T07:57:46.965Z,2.20
2022-08-09T08:00:20.803Z,2.15
2022-08-09T08:03:04.462Z,1.90
2022-08-09T08:05:39.212Z,2.20
2022-08-09T08:09:01.360Z,1.95
2022-08-09T08:12:11.390Z,2.22
2022-08-09T08:13:56.215Z,2.50
2022-08-09T08:16:31.384Z,1.90
2022-08-09T08:18:58.946Z,2.10
2022-08-09T08:21:25.534Z,1.90
2022-08-09T08:23:55.911Z,1.90
2022-08-09T08:26:41.999Z,1.83
2022-08-09T08:29:10.677Z,2.10
2022-08-09T08:31:39.425Z,1.77
2022-08-09T08:34:25.384Z,1.77
2022-08-09T08:36:52.414Z,1.58
2022-08-09T08:39:18.943Z,1.80
2022-08-09T08:41:52.417Z,2.17
2022-08-09T08:44:27.249Z,2.20
2022-08-09T08:47:03.398Z,1.55
2022-08-09T08:49:48.054Z,1.65
2022-08-09T08:52:52.953Z,1.80
2022-08-09T08:55:05.648Z,1.60
2022-08-09T08:57:35.464Z,1.60
2022-08-09T09:00:08.205Z,1.48
2022-08-09T09:02:44.882Z,1.60
2022-08-09T09:05:22.179Z,1.50
2022-08-09T09:08:02.295Z,1.55
2022-08-09T09:10:30.076Z,1.58
2022-08-09T09:12:59.586Z,1.70
2022-08-09T09:15:37.617Z,1.52
2022-08-09T09:18:04.158Z,1.80
2022-08-09T09:20:34.632Z,1.60
2022-08-09T09:23:03.044Z,1.90
2022-08-09T09:26:01.442Z,1.80
2022-08-09T09:29:02.942Z,1.65
2022-08-09T09:31:17.235Z,1.98
2022-08-09T09:34:10.046Z,1.50
2022-08-09T09:36:51.104Z,1.70
2022-08-09T09:39:21.506Z,1.67
2022-08-09T09:41:49.744Z,1.75
2022-08-09T09:44:27.889Z,2.00
2022-08-09T09:47:06.778Z,1.60
2022-08-09T09:50:07.422Z,1.70
2022-08-09T09:52:36.741Z,1.67
2022-08-09T09:58:17.346Z,1.70
2022-08-09T10:00:53.701Z,1.55
2022-08-09T10:03:39.504Z,1.40
2022-08-09T10:06:06.938Z,1.70
2022-08-09T10:08:43.301Z,1.60
2022-08-09T10:11:59.414Z,1.58
2022-08-09T10:14:27.463Z,1.60
2022-08-09T10:17:40.303Z,1.60
2022-08-09T10:19:46.476Z,1.50
2022-08-09T10:22:13.074Z,1.73
2022-08-09T10:24:39.659Z,1.80
2022-08-09T10:27:10.339Z,2.03
2022-08-09T10:30:26.386Z,1.60
2022-08-09T10:32:48.524Z,1.60
2022-08-09T10:35:16.210Z,1.65
2022-08-09T10:37:44.336Z,1.38
2022-08-09T10:40:32.454Z,1.80
2022-08-09T10:42:59.924Z,1.70
2022-08-09T10:45:31.774Z,1.60
2022-08-09T10:50:58.914Z,1.40
2022-08-09T10:53:46.895Z,1.58
2022-08-09T10:56:23.314Z,1.65
2022-08-09T10:58:51.027Z,1.80
2022-08-09T11:03:13.504Z,1.80
2022-08-09T11:04:31.252Z,1.45
2022-08-09T11:07:56.724Z,1.60
2022-08-09T11:10:15.132Z,1.55
2022-08-09T11:12:42.201Z,1.60
2022-08-09T11:15:24.395Z,1.92
2022-08-09T11:18:03.727Z,1.40
2022-08-09T11:20:41.451Z,1.30
2022-08-09T11:23:10.639Z,1.58
2022-08-09T11:25:46.135Z,1.70
2022-08-09T11:28:34.593Z,1.50
2022-08-09T11:31:36.522Z,1.70
2022-08-09T11:34:09.780Z,1.70
2022-08-09T11:36:42.327Z,1.60
2022-08-09T11:39:11.088Z,1.70
2022-08-09T11:41:40.473Z,1.52
2022-08-09T11:44:08.006Z,1.77
2022-08-09T11:46:58.113Z,1.50
2022-08-09T11:50:56.077Z,1.42
2022-08-09T11:53:57.486Z,1.70
2022-08-09T11:58:48.186Z,1.45
2022-08-09T12:02:18.043Z,1.67
2022-08-09T12:04:08.779Z,1.85
2022-08-09T12:06:55.747Z,1.85
2022-08-09T12:09:26.172Z,1.90
2022-08-09T12:12:02.594Z,1.75
2022-08-09T12:14:40.499Z,1.73
2022-08-09T12:17:28.340Z,1.50
2022-08-09T12:20:12.592Z,1.60
2022-08-09T12:22:44.701Z,1.63
2022-08-09T12:25:12.508Z,1.90
2022-08-09T12:29:10.893Z,1.50
2022-08-09T12:30:36.749Z,1.88
2022-08-09T12:33:05.872Z,1.73
2022-08-09T12:35:40.255Z,1.80
2022-08-09T12:41:05.402Z,1.88
2022-08-09T12:44:05.361Z,1.73
2022-08-09T12:46:23.411Z,1.75
2022-08-09T12:48:51.156Z,1.70
2022-08-09T12:51:30.292Z,1.80
2022-08-09T12:54:06.698Z,2.03
2022-08-09T12:56:50.986Z,1.83
2022-08-09T12:59:21.640Z,1.85
2022-08-09T13:02:01.339Z,1.63
2022-08-09T13:04:36.558Z,1.90
2022-08-09T13:07:13.391Z,1.63
2022-08-09T13:09:43.284Z,1.63
2022-08-09T13:12:19.930Z,1.90
2022-08-09T13:14:54.282Z,1.85
2022-08-09T13:18:03.229Z,1.90
2022-08-09T13:20:14.379Z,1.70
2022-08-09T13:23:01.156Z,1.80
2022-08-09T13:25:41.786Z,1.70
2022-08-09T13:28:10.478Z,1.98
2022-08-09T13:30:50.438Z,1.77
2022-08-09T13:33:51.667Z,1.80
2022-08-09T13:36:24.806Z,1.98
2022-08-09T13:39:08.186Z,1.95
2022-08-09T13:41:57.603Z,1.90
2022-08-09T13:44:27.108Z,1.80
2022-08-09T13:47:27.028Z,2.05
2022-08-09T13:49:57.680Z,1.60
2022-08-09T13:52:28.208Z,1.70
2022-08-09T13:55:00.745Z,1.85
2022-08-09T13:57:35.934Z,1.60
2022-08-09T14:00:08.192Z,1.45
2022-08-09T14:02:36.324Z,1.48
2022-08-09T14:05:10.422Z,1.83
2022-08-09T14:07:41.004Z,1.60
2022-08-09T14:10:17.529Z,1.98
2022-08-09T14:12:56.311Z,1.90
2022-08-09T14:16:10.131Z,1.65
2022-08-09T14:18:19.655Z,1.40
2022-08-09T14:20:54.129Z,1.60
2022-08-09T14:23:40.132Z,1.83
2022-08-09T14:26:06.984Z,1.75
2022-08-09T14:28:36.652Z,1.67
2022-08-09T14:31:03.303Z,1.85
2022-08-09T14:33:38.267Z,2.13
2022-08-09T14:36:19.835Z,1.67
2022-08-09T14:38:52.582Z,1.60
2022-08-09T14:41:39.814Z,1.60
2022-08-09T14:44:06.662Z,1.98
2022-08-09T14:47:01.074Z,2.10
2022-08-09T14:49:23.908Z,1.60
2022-08-09T14:51:50.637Z,1.95
2022-08-09T14:54:27.544Z,1.60
2022-08-09T14:56:57.727Z,1.77
2022-08-09T14:59:25.825Z,2.20
2022-08-09T15:01:53.878Z,1.60
2022-08-09T15:04:20.368Z,1.90
2022-08-09T15:06:51.751Z,1.67
2022-08-09T15:10:03.717Z,1.83
2022-08-09T15:12:07.777Z,1.70
2022-08-09T15:14:34.957Z,1.52
2022-08-09T15:17:05.450Z,1.60
2022-08-09T15:19:35.961Z,2.00
2022-08-09T15:22:04.215Z,1.80
2022-08-09T15:24:32.201Z,1.67
2022-08-09T15:26:59.424Z,1.85
2022-08-09T15:30:56.678Z,1.75
2022-08-09T15:32:29.580Z,1.70
2022-08-09T15:37:36.926Z,2.10
2022-08-09T15:40:11.645Z,1.98
2022-08-09T15:42:39.547Z,2.00
2022-08-09T15:45:11.288Z,1.83
2022-08-09T15:47:51.442Z,1.70
2022-08-09T15:50:19.710Z,2.00
2022-08-09T15:52:55.134Z,1.58
2022-08-09T15:56:04.323Z,1.73
2022-08-09T15:58:26.730Z,1.95
2022-08-09T16:00:53.880Z,1.70
2022-08-09T16:03:29.570Z,2.00
2022-08-09T16:06:05.464Z,1.60
2022-08-09T16:08:33.377Z,1.67
2022-08-09T16:11:01.462Z,1.70
2022-08-09T16:14:04.018Z,1.60
2022-08-09T16:16:18.707Z,2.00
2022-08-09T16:18:45.779Z,2.03
2022-08-09T16:21:17.253Z,1.70
2022-08-09T16:23:55.764Z,1.70
2022-08-09T16:26:33.367Z,2.38
2022-08-09T16:29:01.168Z,1.98
2022-08-09T16:32:10.245Z,1.80
2022-08-09T16:34:24.118Z,2.20
2022-08-09T16:36:50.563Z,1.85
2022-08-09T16:39:18.363Z,1.95
2022-08-09T16:42:03.703Z,2.15
2022-08-09T16:44:32.083Z,2.03
2022-08-09T16:47:04.013Z,1.40
2022-08-09T16:50:29.087Z,1.88
2022-08-09T16:52:32.429Z,1.83
2022-08-09T16:55:00.416Z,1.70
2022-08-09T16:57:26.922Z,1.63
2022-08-09T17:00:14.755Z,1.60
2022-08-09T17:02:41.634Z,1.90
2022-08-09T17:05:10.267Z,1.85
2022-08-09T17:08:44.725Z,1.98
2022-08-09T17:10:27.702Z,2.00
2022-08-09T17:12:54.187Z,1.35
2022-08-09T17:15:59.035Z,1.55
2022-08-09T17:18:07.947Z,1.60
2022-08-09T17:20:42.398Z,1.95
2022-08-09T17:23:15.934Z,1.80
2022-08-09T17:25:44.319Z,1.50
2022-08-09T17:28:19.212Z,1.98
2022-08-09T17:30:47.856Z,1.67
2022-08-09T17:33:21.890Z,2.08
2022-08-09T17:35:50.011Z,1.98
2022-08-09T17:38:30.701Z,1.42
2022-08-09T17:41:02.963Z,1.80
2022-08-09T17:43:34.799Z,1.25
2022-08-09T17:46:06.113Z,1.60
2022-08-09T17:48:35.139Z,1.63
2022-08-09T17:51:10.305Z,1.92
2022-08-09T17:53:51.644Z,1.70
2022-08-09T17:56:21.591Z,1.73
2022-08-09T17:58:48.216Z,1.40
2022-08-09T18:01:15.677Z,1.65
2022-08-09T18:03:50.091Z,1.33
2022-08-09T18:06:31.079Z,1.73
2022-08-09T18:08:59.240Z,1.70
2022-08-09T18:11:27.018Z,1.63
2022-08-09T18:14:03.357Z,1.83
2022-08-09T18:16:34.733Z,2.22
2022-08-09T18:20:59.838Z,1.90
2022-08-09T18:21:58.093Z,1.80
2022-08-09T18:24:27.752Z,2.00
2022-08-09T18:26:55.468Z,1.50
2022-08-09T18:30:41.356Z,1.92
2022-08-09T18:32:08.938Z,1.55
2022-08-09T18:34:36.358Z,1.70
2022-08-09T18:37:03.624Z,1.65
2022-08-09T18:39:32.185Z,1.80
2022-08-09T18:42:01.249Z,1.55
2022-08-09T18:44:27.935Z,1.83
2022-08-09T18:47:08.201Z,1.83
2022-08-09T18:49:43.759Z,1.70
2022-08-09T18:52:14.100Z,1.83
2022-08-09T18:54:49.575Z,1.73
2022-08-09T18:57:22.773Z,1.75
2022-08-09T18:59:54.431Z,1.50
2022-08-09T19:02:30.478Z,1.65
2022-08-09T19:05:03.646Z,1.55
2022-08-09T19:07:40.858Z,1.80
2022-08-09T19:10:15.721Z,2.05
2022-08-09T19:12:50.011Z,1.50
2022-08-09T19:15:19.433Z,1.90
2022-08-09T19:17:54.308Z,1.98
2022-08-09T19:20:22.837Z,1.65
2022-08-09T19:22:50.430Z,1.50
2022-08-09T19:25:42.590Z,1.70
2022-08-09T19:28:12.999Z,1.70
2022-08-09T19:30:40.259Z,2.22
2022-08-09T19:33:17.975Z,1.83
2022-08-09T19:35:57.098Z,1.98
2022-08-09T19:38:25.395Z,2.10
2022-08-09T19:40:51.938Z,1.38
2022-08-09T19:44:01.642Z,2.13
2022-08-09T19:46:06.281Z,1.58
2022-08-09T19:49:00.470Z,1.70
2022-08-09T19:51:21.329Z,1.63
2022-08-09T19:53:48.225Z,1.70
2022-08-09T19:56:15.437Z,1.55
2022-08-09T19:58:56.516Z,1.80
2022-08-09T20:01:52.205Z,1.92
2022-08-09T20:04:25.120Z,1.63
2022-08-09T20:06:59.811Z,1.60
2022-08-09T20:09:45.302Z,1.88
2022-08-09T20:12:16.187Z,1.80
2022-08-09T20:14:58.083Z,1.90
2022-08-09T20:17:26.133Z,1.85
2022-08-09T20:19:57.497Z,1.83
2022-08-09T20:22:24.194Z,1.77
2022-08-09T20:24:58.752Z,1.98
2022-08-09T20:27:29.324Z,2.22
2022-08-09T20:29:55.973Z,2.17
2022-08-09T20:32:40.876Z,1.88
2022-08-09T20:35:11.734Z,1.98
2022-08-09T20:38:22.564Z,2.13
2022-08-09T20:40:27.191Z,1.98
2022-08-09T20:43:11.899Z,1.67
2022-08-09T20:46:01.407Z,2.20
2022-08-09T20:48:31.135Z,2.00
2022-08-09T20:50:58.518Z,1.65
2022-08-09T20:53:37.095Z,1.80
2022-08-09T20:56:06.395Z,1.88
2022-08-09T20:58:35.862Z,2.10
2022-08-09T21:01:32.799Z,1.83
2022-08-09T21:05:49.246Z,1.70
2022-08-09T21:06:41.579Z,1.92
2022-08-09T21:09:13.412Z,1.90
2022-08-09T21:14:27.142Z,2.00
2022-08-09T21:16:57.823Z,2.10
2022-08-09T21:20:19.143Z,2.15
2022-08-09T21:22:36.115Z,1.63
2022-08-09T21:25:00.467Z,2.03
2022-08-09T21:27:51.189Z,1.98
2022-08-09T21:30:13.844Z,2.15
2022-08-09T21:32:45.283Z,2.00
2022-08-09T21:35:13.066Z,2.17
2022-08-09T21:37:40.557Z,1.83
2022-08-09T21:40:19.039Z,2.13
2022-08-09T21:42:57.474Z,1.73
2022-08-09T21:45:24.797Z,2.05
2022-08-09T21:47:52.194Z,2.00
2022-08-09T21:50:36.191Z,2.00
2022-08-09T21:53:06.766Z,2.28
2022-08-09T21:55:50.546Z,2.60
2022-08-09T21:58:17.070Z,2.22
2022-08-09T22:00:43.846Z,2.00
2022-08-09T22:03:25.616Z,2.05
2022-08-09T22:05:54.379Z,1.90
2022-08-09T22:08:23.026Z,1.85
2022-08-09T22:11:00.238Z,1.98
2022-08-09T22:13:39.353Z,2.25
2022-08-09T22:16:10.374Z,2.03
2022-08-09T22:18:38.300Z,2.00
2022-08-09T22:21:09.940Z,2.10
2022-08-09T22:23:58.997Z,2.05
2022-08-09T22:26:34.936Z,1.92
2022-08-09T22:29:07.146Z,2.03
2022-08-09T22:31:34.564Z,2.28
2022-08-09T22:34:01.275Z,1.80
2022-08-09T22:36:29.055Z,2.00
2022-08-09T22:41:58.158Z,2.20
2022-08-09T22:44:25.223Z,1.88
2022-08-09T22:49:45.375Z,2.00
2022-08-09T22:52:13.175Z,2.45
2022-08-09T22:54:42.300Z,2.03
2022-08-09T22:57:13.358Z,2.30
2022-08-09T22:59:58.317Z,2.10
2022-08-09T23:02:25.861Z,2.05
2022-08-09T23:04:54.688Z,1.92
2022-08-09T23:07:31.041Z,1.92
2022-08-09T23:10:12.373Z,2.30
2022-08-09T23:12:38.882Z,1.92
2022-08-09T23:15:05.869Z,1.88
2022-08-09T23:17:32.700Z,2.40
2022-08-09T23:20:07.267Z,2.50
2022-08-09T23:22:36.131Z,1.85
2022-08-09T23:25:02.823Z,2.00
2022-08-09T23:27:29.424Z,2.22
2022-08-09T23:29:55.881Z,1.83
2022-08-09T23:32:22.339Z,1.83
2022-08-09T23:34:48.918Z,2.08
2022-08-09T23:37:15.389Z,2.08
2022-08-09T23:39:45.564Z,2.03
2022-08-09T23:42:12.089Z,1.88
2022-08-09T23:44:38.581Z,1.92
2022-08-09T23:47:05.164Z,1.88
2022-08-09T23:49:31.649Z,2.10
2022-08-09T23:51:58.207Z,2.15
2022-08-09T23:54:26.764Z,2.10
2022-08-09T23:56:56.139Z,1.83
2022-08-09T23:59:25.623Z,1.88
